Time;durP1;ratioP1;P1;durP2;ratioP2;P2;SDS_P1;SDS_P2;PMS_P1;PMS_P2;Temp;Humidity;BMP_temperature;BMP_pressure;BME280_temperature;BME280_humidity;BME280_pressure;Samples;Min_cycle;Max_cycle;Signal;HPM_P1;HPM_P2
2022/02/28 00:01:07;;;;;;;15.93;8.90;;;-0.70;99.90;;;;;;5004725;28;20196;-78
2022/02/28 00:03:33;;;;;;;15.67;9.07;;;-0.60;99.90;;;;;;5012345;28;20212;-79
2022/02/28 00:05:58;;;;;;;12.90;8.23;;;-0.50;99.90;;;;;;5004239;28;20188;-80
2022/02/28 00:08:24;;;;;;;14.70;8.97;;;-0.50;99.90;;;;;;5021499;28;20199;-79
2022/02/28 00:10:50;;;;;;;14.97;8.20;;;-0.40;99.90;;;;;;4999311;28;20280;-79
2022/02/28 00:13:16;;;;;;;16.00;10.43;;;-0.40;99.90;;;;;;5003967;28;20227;-79
2022/02/28 00:15:41;;;;;;;14.10;9.17;;;-0.40;99.90;;;;;;5002389;28;20604;-77
2022/02/28 00:18:07;;;;;;;16.40;10.07;;;-0.50;99.90;;;;;;5001543;28;20234;-76
2022/02/28 00:20:33;;;;;;;15.53;9.50;;;-0.60;99.90;;;;;;5021402;28;20214;-78
2022/02/28 00:22:59;;;;;;;14.67;8.50;;;-0.60;99.90;;;;;;5004825;28;20183;-80
2022/02/28 00:25:24;;;;;;;13.50;8.57;;;-0.70;99.90;;;;;;5019787;28;20187;-76
2022/02/28 00:27:50;;;;;;;14.90;9.17;;;-0.70;99.90;;;;;;5002895;28;20192;-81
2022/02/28 00:30:16;;;;;;;14.23;9.20;;;-0.70;99.90;;;;;;5003625;28;20207;-82
2022/02/28 00:32:41;;;;;;;13.07;8.83;;;-0.80;99.90;;;;;;5003899;28;20207;-81
2022/02/28 00:35:08;;;;;;;16.70;9.63;;;-0.70;99.90;;;;;;5020585;28;20180;-76
2022/02/28 00:37:34;;;;;;;13.60;8.47;;;-0.70;99.90;;;;;;5019960;28;20723;-77
2022/02/28 00:40:00;;;;;;;17.23;9.57;;;-0.80;99.90;;;;;;5013384;28;20204;-79
2022/02/28 00:42:25;;;;;;;14.57;9.00;;;-0.90;99.90;;;;;;5009668;28;20184;-79
2022/02/28 00:44:51;;;;;;;17.43;9.93;;;-0.80;99.90;;;;;;5008737;28;20191;-81
2022/02/28 00:47:16;;;;;;;13.80;9.00;;;-0.80;99.90;;;;;;5009279;28;20215;-79
2022/02/28 00:49:42;;;;;;;17.90;9.17;;;-0.80;99.90;;;;;;5023642;28;20686;-77
2022/02/28 00:52:08;;;;;;;13.03;8.57;;;-0.80;99.90;;;;;;5024000;28;20199;-79
2022/02/28 00:54:33;;;;;;;14.53;9.13;;;-0.80;99.90;;;;;;5009607;28;20267;-82
2022/02/28 00:56:59;;;;;;;16.67;9.40;;;-0.80;99.90;;;;;;5008633;28;20266;-79
2022/02/28 00:59:25;;;;;;;15.13;9.87;;;-0.90;99.90;;;;;;5010083;28;20202;-80
2022/02/28 01:01:51;;;;;;;14.40;8.83;;;-0.90;99.90;;;;;;5008311;28;20245;-76
2022/02/28 01:04:17;;;;;;;14.53;9.07;;;-0.90;99.90;;;;;;5008263;28;20198;-77
2022/02/28 01:06:43;;;;;;;16.97;9.63;;;-1.00;99.90;;;;;;5023545;28;20191;-79
2022/02/28 01:09:09;;;;;;;16.23;10.23;;;-0.90;99.90;;;;;;5023466;28;20199;-79
2022/02/28 01:11:34;;;;;;;16.13;9.47;;;-1.00;99.90;;;;;;5006196;28;20223;-79
2022/02/28 01:14:00;;;;;;;17.43;10.17;;;-1.00;99.90;;;;;;5023937;28;20581;-78
2022/02/28 01:16:26;;;;;;;14.80;9.93;;;-1.00;99.90;;;;;;5025028;28;20337;-81
2022/02/28 01:18:52;;;;;;;16.37;9.93;;;-1.10;99.90;;;;;;5006192;28;20681;-76
2022/02/28 01:21:18;;;;;;;18.00;9.97;;;-1.10;99.90;;;;;;5007885;28;20270;-80
2022/02/28 01:23:43;;;;;;;16.63;9.40;;;-1.00;99.90;;;;;;5021449;28;20223;-78
2022/02/28 01:26:09;;;;;;;14.47;9.23;;;-1.00;99.90;;;;;;5024120;28;20627;-79
2022/02/28 01:28:35;;;;;;;17.67;10.33;;;-1.10;99.90;;;;;;5007492;28;20202;-79
2022/02/28 01:31:01;;;;;;;17.83;10.43;;;-1.00;99.90;;;;;;5009375;28;21121;-77
2022/02/28 01:33:27;;;;;;;16.67;9.77;;;-1.10;99.90;;;;;;5024146;28;20211;-77
2022/02/28 01:35:53;;;;;;;17.63;9.47;;;-1.10;99.90;;;;;;5008606;28;20183;-79
2022/02/28 01:38:18;;;;;;;17.50;9.50;;;-1.10;99.90;;;;;;5005718;28;20534;-78
2022/02/28 01:40:44;;;;;;;15.40;9.67;;;-1.10;99.90;;;;;;5008025;28;20801;-78
2022/02/28 01:43:10;;;;;;;17.43;10.40;;;-1.10;99.90;;;;;;5006036;28;20189;-78
2022/02/28 01:45:35;;;;;;;16.97;10.13;;;-1.20;99.90;;;;;;5006442;28;20192;-78
2022/02/28 01:48:01;;;;;;;18.07;10.00;;;-1.20;99.90;;;;;;5008057;28;20247;-79
2022/02/28 01:50:28;;;;;;;17.10;9.63;;;-1.30;99.90;;;;;;5007071;28;20593;-77
2022/02/28 01:52:54;;;;;;;17.13;10.27;;;-1.30;99.90;;;;;;5005417;28;20231;-76
2022/02/28 01:55:22;;;;;;;19.00;9.97;;;-1.40;99.90;;;;;;5021155;28;20291;-78
2022/02/28 01:57:48;;;;;;;17.97;10.43;;;-1.40;99.90;;;;;;5006431;28;20192;-79
2022/02/28 02:00:19;;;;;;;17.83;10.07;;;-1.50;99.90;;;;;;5020003;28;20208;-77
2022/02/28 02:02:45;;;;;;;16.60;9.57;;;-1.50;99.90;;;;;;5004230;28;20258;-79
2022/02/28 02:05:11;;;;;;;17.63;9.87;;;-1.50;99.90;;;;;;5022666;28;20188;-78
2022/02/28 02:07:37;;;;;;;19.47;10.80;;;-1.50;99.90;;;;;;5003897;28;20822;-76
2022/02/28 02:10:05;;;;;;;16.17;9.93;;;-1.60;99.90;;;;;;5003986;28;20286;-76
2022/02/28 02:12:31;;;;;;;19.00;10.30;;;-1.50;99.90;;;;;;5021261;28;20278;-78
2022/02/28 02:14:58;;;;;;;20.73;10.87;;;-1.50;99.90;;;;;;5020966;28;20188;-82
2022/02/28 02:17:24;;;;;;;19.37;10.97;;;-1.50;99.90;;;;;;5021115;28;20184;-79
2022/02/28 02:19:52;;;;;;;20.40;10.77;;;-1.60;99.90;;;;;;5004109;28;20227;-78
2022/02/28 02:22:21;;;;;;;18.53;10.33;;;-1.60;99.90;;;;;;5003397;28;20187;-78
2022/02/28 02:24:51;;;;;;;18.00;10.67;;;-1.60;99.90;;;;;;5005007;28;20419;-77
2022/02/28 02:27:17;;;;;;;19.20;10.37;;;-1.50;99.90;;;;;;5005066;28;20183;-78
2022/02/28 02:29:43;;;;;;;18.70;11.10;;;-1.50;99.90;;;;;;5004582;28;20219;-78
2022/02/28 02:32:18;;;;;;;19.00;11.00;;;-1.50;99.90;;;;;;5005436;28;20246;-78
2022/02/28 02:34:45;;;;;;;23.17;11.93;;;-1.40;99.90;;;;;;5004509;28;20222;-79
2022/02/28 02:37:11;;;;;;;18.70;10.93;;;-1.40;99.90;;;;;;5003316;28;20265;-77
2022/02/28 02:39:41;;;;;;;20.00;12.50;;;-1.50;99.90;;;;;;5004681;28;20191;-79
2022/02/28 02:42:07;;;;;;;21.30;12.47;;;-1.50;99.90;;;;;;5019704;28;20194;-78
2022/02/28 02:44:34;;;;;;;21.87;13.00;;;-1.50;99.90;;;;;;5002542;28;20199;-77
2022/02/28 02:47:00;;;;;;;21.13;12.00;;;-1.60;99.90;;;;;;5004134;28;20201;-76
2022/02/28 02:49:27;;;;;;;23.47;12.80;;;-1.60;99.90;;;;;;5004821;28;20750;-78
2022/02/28 02:51:53;;;;;;;22.47;11.83;;;-1.60;99.90;;;;;;5021734;28;20618;-79
2022/02/28 02:54:18;;;;;;;20.77;12.60;;;-1.60;99.90;;;;;;5002671;28;20218;-78
2022/02/28 02:56:44;;;;;;;24.37;12.77;;;-1.70;99.90;;;;;;5001789;28;20589;-77
2022/02/28 02:59:09;;;;;;;25.70;13.83;;;-1.70;99.90;;;;;;5000786;28;20560;-77
2022/02/28 03:01:35;;;;;;;20.80;12.20;;;-1.70;99.90;;;;;;5019469;28;20207;-77
2022/02/28 03:04:00;;;;;;;24.70;13.57;;;-1.80;99.90;;;;;;5002566;28;20207;-78
2022/02/28 03:06:27;;;;;;;22.63;13.27;;;-1.70;99.90;;;;;;5018407;28;20634;-78
2022/02/28 03:08:53;;;;;;;23.20;13.33;;;-1.70;99.90;;;;;;5001936;28;20199;-78
2022/02/28 03:11:19;;;;;;;26.67;13.73;;;-1.70;99.90;;;;;;5000188;28;20216;-77
2022/02/28 03:13:44;;;;;;;27.03;14.03;;;-1.70;99.90;;;;;;5000941;28;20760;-78
2022/02/28 03:16:10;;;;;;;23.40;13.83;;;-1.70;99.90;;;;;;5000258;28;20637;-78
2022/02/28 03:18:35;;;;;;;25.50;14.07;;;-1.60;99.90;;;;;;4997213;28;20651;-78
2022/02/28 03:21:01;;;;;;;28.00;14.43;;;-1.60;99.90;;;;;;5013097;28;20732;-78
2022/02/28 03:23:27;;;;;;;28.50;14.20;;;-1.70;99.90;;;;;;4996992;28;20198;-78
2022/02/28 03:25:54;;;;;;;26.67;14.10;;;-1.70;99.90;;;;;;4997353;28;20196;-78
2022/02/28 03:28:20;;;;;;;24.40;13.80;;;-1.60;99.90;;;;;;5000139;28;20188;-80
2022/02/28 03:30:46;;;;;;;26.33;14.37;;;-1.70;99.90;;;;;;5005421;28;20208;-80
2022/02/28 03:33:12;;;;;;;27.10;15.10;;;-1.70;99.90;;;;;;5004710;28;20212;-79
2022/02/28 03:35:38;;;;;;;27.33;14.20;;;-1.80;99.90;;;;;;5011412;28;20287;-78
2022/02/28 03:38:04;;;;;;;25.97;14.43;;;-1.70;99.90;;;;;;5006464;28;20207;-78
2022/02/28 03:40:30;;;;;;;27.00;14.13;;;-1.70;99.90;;;;;;5007435;28;20319;-78
2022/02/28 03:43:01;;;;;;;29.03;15.00;;;-1.70;99.90;;;;;;5003906;28;20198;-79
2022/02/28 03:45:27;;;;;;;27.10;15.33;;;-1.70;99.90;;;;;;5002900;28;20741;-80
2022/02/28 03:47:53;;;;;;;29.13;16.07;;;-1.70;99.90;;;;;;5011627;28;20193;-78
2022/02/28 03:50:18;;;;;;;31.03;16.27;;;-1.60;99.90;;;;;;5020715;28;20219;-78
2022/02/28 03:52:44;;;;;;;28.33;15.87;;;-1.70;99.90;;;;;;5000908;28;20298;-79
2022/02/28 03:55:11;;;;;;;30.97;15.13;;;-1.70;99.90;;;;;;5017360;28;20246;-80
2022/02/28 03:57:37;;;;;;;31.73;16.37;;;-1.70;99.90;;;;;;5021796;28;20803;-79
2022/02/28 04:00:04;;;;;;;30.63;16.23;;;-1.60;99.90;;;;;;5005067;28;20217;-80
2022/02/28 04:02:30;;;;;;;32.50;15.90;;;-1.60;99.90;;;;;;5019609;28;20207;-80
2022/02/28 04:04:55;;;;;;;34.27;17.60;;;-1.60;99.90;;;;;;5002355;28;20208;-80
2022/02/28 04:07:21;;;;;;;37.67;17.63;;;-1.60;99.90;;;;;;5020993;28;20189;-76
2022/02/28 04:09:46;;;;;;;42.47;21.10;;;-1.70;99.90;;;;;;5018500;28;20215;-79
2022/02/28 04:12:12;;;;;;;48.83;22.20;;;-1.70;99.90;;;;;;5011303;28;20180;-79
2022/02/28 04:14:38;;;;;;;44.30;21.30;;;-1.70;99.90;;;;;;5003162;28;20188;-79
2022/02/28 04:17:04;;;;;;;42.87;21.53;;;-1.80;99.90;;;;;;5008632;28;20556;-77
2022/02/28 04:19:29;;;;;;;46.07;21.20;;;-1.70;99.90;;;;;;5005242;28;20215;-78
2022/02/28 04:21:55;;;;;;;48.40;21.00;;;-1.60;99.90;;;;;;5008868;28;20194;-79
2022/02/28 04:24:21;;;;;;;42.43;19.63;;;-1.50;99.90;;;;;;5007387;28;20183;-79
2022/02/28 04:26:46;;;;;;;42.73;21.20;;;-1.50;99.90;;;;;;5007929;28;20187;-79
2022/02/28 04:29:15;;;;;;;46.23;22.63;;;-1.50;99.90;;;;;;5021572;28;20187;-78
2022/02/28 04:31:41;;;;;;;44.33;21.47;;;-1.30;99.90;;;;;;5003657;28;20212;-77
2022/02/28 04:34:06;;;;;;;58.97;20.70;;;-1.20;99.90;;;;;;5004692;28;20204;-79
2022/02/28 04:36:32;;;;;;;45.53;19.63;;;-1.20;99.90;;;;;;5003724;28;20609;-77
2022/02/28 04:38:58;;;;;;;46.93;21.20;;;-1.20;99.90;;;;;;5002766;28;20180;-77
2022/02/28 04:41:24;;;;;;;45.17;20.83;;;-1.20;99.90;;;;;;5009829;28;20284;-79
2022/02/28 04:43:50;;;;;;;40.00;19.67;;;-1.30;99.90;;;;;;4994377;28;20188;-77
2022/02/28 04:46:16;;;;;;;44.97;18.93;;;-1.20;99.90;;;;;;4998999;28;20180;-78
2022/02/28 04:48:42;;;;;;;45.60;20.13;;;-1.10;99.90;;;;;;4994948;28;20267;-78
2022/02/28 04:51:07;;;;;;;36.07;16.83;;;-1.20;99.90;;;;;;4995526;28;20251;-78
2022/02/28 04:53:33;;;;;;;37.70;18.40;;;-1.30;99.90;;;;;;5003572;28;20211;-78
2022/02/28 04:55:59;;;;;;;39.17;19.33;;;-1.30;99.90;;;;;;5000814;28;20198;-79
2022/02/28 04:58:24;;;;;;;39.67;18.50;;;-1.30;99.90;;;;;;4995737;28;20472;-79
2022/02/28 05:00:50;;;;;;;39.60;17.90;;;-1.30;99.90;;;;;;5013043;28;20292;-79
2022/02/28 05:03:16;;;;;;;40.70;18.07;;;-1.40;99.90;;;;;;5012495;28;20740;-82
2022/02/28 05:05:41;;;;;;;34.43;17.60;;;-1.40;99.90;;;;;;4998705;28;20192;-78
2022/02/28 05:08:07;;;;;;;36.50;18.13;;;-1.40;99.90;;;;;;5021163;28;20212;-79
2022/02/28 05:10:33;;;;;;;41.77;17.23;;;-1.40;99.90;;;;;;5018274;28;20214;-79
2022/02/28 05:12:59;;;;;;;41.40;17.90;;;-1.40;99.90;;;;;;5021035;28;20266;-78
2022/02/28 05:15:25;;;;;;;39.20;17.30;;;-1.30;99.90;;;;;;5018294;28;20863;-77
2022/02/28 05:17:50;;;;;;;35.83;17.37;;;-1.30;99.90;;;;;;5018788;28;20194;-78
2022/02/28 05:20:18;;;;;;;39.63;17.17;;;-1.30;99.90;;;;;;5000824;28;20200;-77
2022/02/28 05:22:44;;;;;;;41.63;17.77;;;-1.40;99.90;;;;;;5015892;28;20311;-79
2022/02/28 05:25:10;;;;;;;40.90;18.73;;;-1.50;99.90;;;;;;4996453;28;20184;-76
2022/02/28 05:27:37;;;;;;;47.23;18.57;;;-1.40;99.90;;;;;;4997099;28;20207;-77
2022/02/28 05:30:04;;;;;;;39.00;18.27;;;-1.50;99.90;;;;;;5002922;28;20315;-78
2022/02/28 05:32:30;;;;;;;40.93;18.20;;;-1.40;99.90;;;;;;5007940;28;20694;-78
2022/02/28 05:34:55;;;;;;;38.83;17.30;;;-1.40;99.90;;;;;;5008779;28;20184;-79
2022/02/28 05:37:21;;;;;;;41.17;18.37;;;-1.40;99.90;;;;;;4997353;28;20676;-79
2022/02/28 05:39:46;;;;;;;38.97;18.00;;;-1.40;99.90;;;;;;5012945;28;20648;-77
2022/02/28 05:42:12;;;;;;;38.33;17.67;;;-1.40;99.90;;;;;;5014191;28;20243;-78
2022/02/28 05:44:37;;;;;;;43.47;19.20;;;-1.30;99.90;;;;;;4994358;28;20364;-78
2022/02/28 05:47:03;;;;;;;50.00;19.23;;;-1.30;99.90;;;;;;5000249;28;20192;-78
2022/02/28 05:49:29;;;;;;;36.90;18.87;;;-1.40;99.90;;;;;;4997692;28;20190;-76
2022/02/28 05:51:54;;;;;;;45.43;18.10;;;-1.40;99.90;;;;;;4997416;28;20192;-78
2022/02/28 05:54:20;;;;;;;45.60;19.70;;;-1.50;99.90;;;;;;4998783;28;21041;-79
2022/02/28 05:56:46;;;;;;;43.10;19.67;;;-1.50;99.90;;;;;;5000466;28;20184;-80
2022/02/28 05:59:11;;;;;;;43.17;20.93;;;-1.50;99.90;;;;;;5014487;28;20566;-79
2022/02/28 06:01:37;;;;;;;48.80;20.53;;;-1.60;99.90;;;;;;5002807;28;20235;-77
2022/02/28 06:04:03;;;;;;;51.30;19.60;;;-1.60;99.90;;;;;;5011338;28;20188;-79
2022/02/28 06:06:29;;;;;;;46.53;19.60;;;-1.70;99.90;;;;;;5016740;28;20663;-77
2022/02/28 06:08:56;;;;;;;55.67;20.70;;;-1.50;99.90;;;;;;5002217;28;20226;-77
2022/02/28 06:11:21;;;;;;;50.27;20.67;;;-1.60;99.90;;;;;;5021520;28;21117;-79
2022/02/28 06:13:47;;;;;;;55.90;21.77;;;-1.60;99.90;;;;;;4998451;28;20267;-78
2022/02/28 06:16:12;;;;;;;53.70;22.07;;;-1.70;99.90;;;;;;4996710;28;20184;-78
2022/02/28 06:18:38;;;;;;;51.80;21.03;;;-1.60;99.90;;;;;;5002611;28;20197;-79
2022/02/28 06:21:04;;;;;;;57.80;21.50;;;-1.60;99.90;;;;;;4995142;28;20302;-80
2022/02/28 06:23:30;;;;;;;47.60;20.47;;;-1.60;99.90;;;;;;5013149;28;20195;-80
2022/02/28 06:25:56;;;;;;;52.20;21.33;;;-1.50;99.90;;;;;;5011999;28;20187;-80
2022/02/28 06:28:21;;;;;;;53.50;20.20;;;-1.50;99.90;;;;;;4995585;28;20188;-82
2022/02/28 06:30:47;;;;;;;51.10;21.33;;;-1.50;99.90;;;;;;5003280;28;20626;-80
2022/02/28 06:33:13;;;;;;;51.60;21.37;;;-1.60;99.90;;;;;;5005781;28;20214;-79
2022/02/28 06:35:39;;;;;;;45.87;21.30;;;-1.50;99.90;;;;;;4996415;28;20550;-79
2022/02/28 06:38:05;;;;;;;57.90;19.70;;;-1.50;99.90;;;;;;4991480;28;20710;-79
2022/02/28 06:40:31;;;;;;;55.23;20.33;;;-1.50;99.90;;;;;;4999294;28;20199;-82
2022/02/28 06:42:57;;;;;;;56.33;20.43;;;-1.50;99.90;;;;;;5001294;28;20202;-81
2022/02/28 06:45:24;;;;;;;46.57;19.77;;;-1.50;99.90;;;;;;5014117;28;20190;-77
2022/02/28 06:47:51;;;;;;;63.50;22.37;;;-1.50;99.90;;;;;;4997241;28;20731;-78
2022/02/28 06:50:16;;;;;;;55.13;20.40;;;-1.50;99.90;;;;;;4996687;28;20211;-78
2022/02/28 06:52:42;;;;;;;61.27;20.37;;;-1.40;99.90;;;;;;4997574;28;20216;-78
2022/02/28 06:55:08;;;;;;;58.77;20.93;;;-1.40;99.90;;;;;;4996291;28;20220;-80
2022/02/28 06:57:34;;;;;;;56.67;20.63;;;-1.50;99.90;;;;;;5006267;28;20184;-79
2022/02/28 06:59:59;;;;;;;55.30;20.33;;;-1.40;99.90;;;;;;5010396;28;20204;-78
2022/02/28 07:02:25;;;;;;;48.83;20.17;;;-1.40;99.90;;;;;;5015565;28;20200;-78
2022/02/28 07:04:50;;;;;;;56.10;19.37;;;-1.40;99.90;;;;;;4989721;28;20627;-80
2022/02/28 07:07:17;;;;;;;60.07;21.90;;;-1.50;99.90;;;;;;4998543;28;20192;-79
2022/02/28 07:09:45;;;;;;;55.53;20.53;;;-1.40;99.90;;;;;;5013970;28;20204;-79
2022/02/28 07:12:11;;;;;;;55.20;22.27;;;-1.40;99.90;;;;;;4998270;28;20188;-77
2022/02/28 07:14:38;;;;;;;55.00;20.90;;;-1.30;99.90;;;;;;5003955;28;21060;-77
2022/02/28 07:17:03;;;;;;;61.20;22.03;;;-1.30;99.90;;;;;;4995185;28;20193;-78
2022/02/28 07:19:29;;;;;;;60.80;20.27;;;-1.30;99.90;;;;;;4997182;28;20494;-78
2022/02/28 07:21:56;;;;;;;64.57;20.43;;;-1.20;99.90;;;;;;5014019;28;20186;-80
2022/02/28 07:24:22;;;;;;;67.13;21.03;;;-1.20;99.90;;;;;;5000091;28;20180;-78
2022/02/28 07:26:48;;;;;;;66.47;20.40;;;-1.10;99.90;;;;;;4997842;28;20560;-77
2022/02/28 07:29:14;;;;;;;53.70;19.60;;;-1.10;99.90;;;;;;5000565;28;20180;-78
2022/02/28 07:31:40;;;;;;;65.77;19.23;;;-1.10;99.90;;;;;;5013837;28;21000;-80
2022/02/28 07:34:06;;;;;;;52.27;19.70;;;-1.00;99.90;;;;;;4994825;28;20200;-79
2022/02/28 07:36:32;;;;;;;46.60;19.30;;;-0.90;99.90;;;;;;4997142;28;20319;-80
2022/02/28 07:38:57;;;;;;;44.83;17.40;;;-0.90;99.90;;;;;;5018018;28;20175;-78
2022/02/28 07:41:23;;;;;;;55.37;18.83;;;-1.10;99.90;;;;;;5004833;28;20200;-78
2022/02/28 07:43:49;;;;;;;47.63;20.13;;;-1.10;99.90;;;;;;5015802;28;21244;-80
2022/02/28 07:46:14;;;;;;;55.33;18.90;;;-0.90;99.90;;;;;;5004909;28;20550;-77
2022/02/28 07:48:40;;;;;;;54.23;18.10;;;-0.90;99.90;;;;;;5010549;28;20700;-79
2022/02/28 07:51:06;;;;;;;47.63;19.53;;;-1.00;99.90;;;;;;4998289;28;20239;-79
2022/02/28 07:53:31;;;;;;;51.53;18.97;;;-1.00;99.90;;;;;;4998376;28;20214;-77
2022/02/28 07:55:57;;;;;;;50.77;19.87;;;-1.10;99.90;;;;;;5014414;28;20194;-80
2022/02/28 07:58:22;;;;;;;47.83;18.73;;;-1.10;99.90;;;;;;5012298;28;20189;-78
2022/02/28 08:00:48;;;;;;;49.40;18.77;;;-1.00;99.90;;;;;;4996025;28;20272;-79
2022/02/28 08:03:14;;;;;;;41.30;16.73;;;-0.90;99.90;;;;;;4994431;28;20204;-79
2022/02/28 08:05:39;;;;;;;44.57;18.90;;;-0.90;99.90;;;;;;4997564;28;20970;-79
2022/02/28 08:08:05;;;;;;;46.17;18.57;;;-0.90;99.90;;;;;;4997414;28;20718;-78
2022/02/28 08:10:30;;;;;;;44.63;19.57;;;-0.80;99.90;;;;;;4996565;28;20200;-78
2022/02/28 08:12:56;;;;;;;48.60;19.30;;;-0.80;99.90;;;;;;4998025;28;20242;-78
2022/02/28 08:15:22;;;;;;;49.87;18.20;;;-0.70;99.90;;;;;;4999551;28;20254;-78
2022/02/28 08:17:49;;;;;;;42.80;16.90;;;-0.60;99.90;;;;;;4998023;28;21295;-78
2022/02/28 08:20:14;;;;;;;44.23;18.23;;;-0.70;99.90;;;;;;4995325;28;20235;-78
2022/02/28 08:22:40;;;;;;;42.13;16.60;;;-0.80;99.90;;;;;;4998178;28;20196;-79
2022/02/28 08:25:07;;;;;;;46.00;19.27;;;-0.70;99.90;;;;;;4996077;28;20183;-78
2022/02/28 08:27:33;;;;;;;44.73;19.07;;;-0.50;99.90;;;;;;5014173;28;20191;-79
2022/02/28 08:29:59;;;;;;;46.43;17.60;;;-0.50;99.90;;;;;;5003999;28;20697;-78
2022/02/28 08:32:25;;;;;;;49.30;18.77;;;-0.50;99.90;;;;;;4996356;28;20242;-79
2022/02/28 08:34:51;;;;;;;44.40;19.23;;;-0.40;99.90;;;;;;5009327;28;20179;-79
2022/02/28 08:37:16;;;;;;;42.70;17.37;;;-0.60;99.90;;;;;;4993639;28;20215;-79
2022/02/28 08:39:42;;;;;;;40.43;18.00;;;-0.60;99.90;;;;;;5009644;28;20208;-78
2022/02/28 08:42:08;;;;;;;37.23;17.07;;;-0.60;99.90;;;;;;5011501;28;20181;-79
2022/02/28 08:44:33;;;;;;;37.60;16.03;;;-0.50;99.90;;;;;;5013869;28;20203;-79
2022/02/28 08:46:59;;;;;;;41.27;16.03;;;-0.50;99.90;;;;;;4998019;28;20194;-79
2022/02/28 08:49:24;;;;;;;38.43;16.47;;;-0.40;99.90;;;;;;4998763;28;20195;-78
2022/02/28 08:51:52;;;;;;;37.67;16.60;;;-0.50;99.90;;;;;;5007235;28;20199;-79
2022/02/28 08:54:18;;;;;;;40.47;16.40;;;-0.30;99.90;;;;;;4990654;28;20235;-80
2022/02/28 08:56:43;;;;;;;33.50;16.07;;;-0.30;99.90;;;;;;4986449;28;20188;-79
2022/02/28 08:59:09;;;;;;;39.60;15.77;;;-0.40;99.90;;;;;;5005826;28;20192;-78
2022/02/28 09:01:35;;;;;;;36.33;16.90;;;-0.40;99.90;;;;;;4995116;28;20212;-79
2022/02/28 09:04:00;;;;;;;36.80;17.07;;;-0.50;99.90;;;;;;4992742;28;20227;-79
2022/02/28 09:06:26;;;;;;;36.27;15.97;;;-0.50;99.90;;;;;;4992690;28;20192;-79
2022/02/28 09:08:51;;;;;;;39.27;16.90;;;-0.40;99.90;;;;;;5008877;28;20659;-79
2022/02/28 09:11:17;;;;;;;41.33;18.40;;;-0.40;99.90;;;;;;4997918;28;20219;-79
2022/02/28 09:13:43;;;;;;;38.83;17.27;;;-0.40;99.90;;;;;;4997852;28;20235;-79
2022/02/28 09:16:09;;;;;;;40.70;16.97;;;-0.20;99.90;;;;;;4997406;28;20709;-79
2022/02/28 09:18:34;;;;;;;45.83;18.27;;;-0.10;99.90;;;;;;4998723;28;20540;-79
2022/02/28 09:21:00;;;;;;;37.37;16.73;;;0.10;99.90;;;;;;5000490;28;20270;-79
2022/02/28 09:23:26;;;;;;;42.20;18.30;;;0.20;99.90;;;;;;5013249;28;21217;-79
2022/02/28 09:25:52;;;;;;;39.50;17.27;;;0.10;99.90;;;;;;4996040;28;20214;-78
2022/02/28 09:28:17;;;;;;;39.30;16.17;;;0.10;99.90;;;;;;4998405;28;21163;-80
2022/02/28 09:30:44;;;;;;;37.73;17.33;;;0.30;99.90;;;;;;4996983;28;20468;-79
2022/02/28 09:33:10;;;;;;;38.90;17.83;;;0.30;99.90;;;;;;4999634;28;20366;-79
2022/02/28 09:35:35;;;;;;;38.83;18.50;;;0.20;99.90;;;;;;5017638;28;20274;-79
2022/02/28 09:38:01;;;;;;;41.83;17.90;;;0.20;99.90;;;;;;4997905;28;20234;-80
2022/02/28 09:40:29;;;;;;;37.73;18.30;;;0.30;99.90;;;;;;5016329;28;20211;-79
2022/02/28 09:42:58;;;;;;;39.00;16.57;;;0.30;99.90;;;;;;5007238;28;21011;-78
2022/02/28 09:45:25;;;;;;;41.03;18.70;;;0.40;99.90;;;;;;5013684;28;20195;-79
2022/02/28 09:47:51;;;;;;;33.10;17.17;;;0.40;99.90;;;;;;4992386;28;20600;-80
2022/02/28 09:50:17;;;;;;;35.83;17.40;;;0.60;99.90;;;;;;4999983;28;20208;-80
2022/02/28 09:52:42;;;;;;;32.40;15.67;;;0.70;99.90;;;;;;5001060;28;20573;-79
2022/02/28 09:55:09;;;;;;;37.70;17.17;;;0.80;99.90;;;;;;5000908;28;20177;-80
2022/02/28 09:57:36;;;;;;;40.10;16.40;;;0.70;99.90;;;;;;4995149;28;20558;-79
2022/02/28 10:00:03;;;;;;;35.00;16.17;;;0.70;99.90;;;;;;4992718;28;20332;-80
2022/02/28 10:02:29;;;;;;;33.90;16.43;;;0.60;99.90;;;;;;4999805;28;20208;-79
2022/02/28 10:04:56;;;;;;;34.37;17.10;;;0.70;99.90;;;;;;5017057;28;20202;-80
2022/02/28 10:07:25;;;;;;;30.43;15.77;;;0.60;99.90;;;;;;4999475;28;20243;-79
2022/02/28 10:10:10;;;;;;;34.07;16.00;;;0.50;99.90;;;;;;4999819;28;20238;-78
2022/02/28 10:12:36;;;;;;;30.50;15.73;;;0.40;99.90;;;;;;4999435;28;20186;-80
2022/02/28 10:15:11;;;;;;;37.07;16.70;;;0.30;99.90;;;;;;4999850;28;20646;-79
2022/02/28 10:17:46;;;;;;;37.13;17.17;;;0.50;99.90;;;;;;5002674;28;20709;-80
2022/02/28 10:20:19;;;;;;;38.07;17.43;;;0.30;99.90;;;;;;5008034;28;20286;-80
2022/02/28 10:22:45;;;;;;;34.53;16.37;;;0.40;99.90;;;;;;5001707;28;20680;-78
2022/02/28 10:25:28;;;;;;;31.17;14.80;;;0.60;99.90;;;;;;5002453;28;20259;-79
2022/02/28 10:28:11;;;;;;;33.43;16.10;;;0.70;99.90;;;;;;5005601;28;20676;-79
2022/02/28 10:30:38;;;;;;;34.90;14.60;;;1.00;99.90;;;;;;5005693;28;20207;-80
2022/02/28 10:33:09;;;;;;;32.93;16.10;;;1.20;99.90;;;;;;5006836;28;20212;-79
2022/02/28 10:36:09;;;;;;;31.93;15.67;;;1.30;99.90;;;;;;5002895;28;20211;-81
2022/02/28 10:38:35;;;;;;;32.60;15.90;;;1.50;99.90;;;;;;5006322;28;20191;-78
2022/02/28 10:41:03;;;;;;;30.93;14.67;;;1.30;99.90;;;;;;5005609;28;20207;-80
2022/02/28 10:43:36;;;;;;;30.07;14.43;;;0.90;99.90;;;;;;5020300;28;20245;-80
2022/02/28 10:46:20;;;;;;;32.57;14.40;;;1.00;99.90;;;;;;5007080;28;20192;-78
2022/02/28 10:48:59;;;;;;;32.10;16.33;;;1.00;99.90;;;;;;5016397;28;20203;-79
2022/02/28 10:51:26;;;;;;;34.27;17.03;;;1.20;99.90;;;;;;5001990;28;20199;-81
2022/02/28 10:54:27;;;;;;;31.27;14.80;;;1.10;99.90;;;;;;5015947;28;20604;-77
2022/02/28 10:56:57;;;;;;;32.67;15.37;;;1.10;99.90;;;;;;4999932;28;20188;-78
2022/02/28 10:59:32;;;;;;;35.60;16.17;;;1.20;99.90;;;;;;4993767;28;20195;-79
2022/02/28 11:01:58;;;;;;;31.40;15.07;;;1.20;99.90;;;;;;4990971;28;20658;-78
2022/02/28 11:04:35;;;;;;;31.03;14.37;;;1.10;99.90;;;;;;5006949;28;20293;-78
2022/02/28 11:07:02;;;;;;;30.40;15.60;;;1.20;99.90;;;;;;4994706;28;20194;-79
2022/02/28 11:09:31;;;;;;;30.07;14.90;;;1.20;99.90;;;;;;4994994;28;20183;-78
2022/02/28 11:12:15;;;;;;;28.93;14.67;;;1.40;99.90;;;;;;4994620;28;20599;-78
2022/02/28 11:14:41;;;;;;;32.83;14.67;;;1.40;99.90;;;;;;4992498;28;20216;-80
2022/02/28 11:17:07;;;;;;;32.23;15.43;;;1.40;99.90;;;;;;4992456;28;20207;-76
2022/02/28 11:19:32;;;;;;;32.33;16.63;;;1.40;99.90;;;;;;4998314;28;20187;-78
2022/02/28 11:21:58;;;;;;;34.17;15.87;;;1.40;99.90;;;;;;5000060;28;20192;-79
2022/02/28 11:24:24;;;;;;;31.50;16.13;;;1.30;99.90;;;;;;5014259;28;20238;-80
2022/02/28 11:26:49;;;;;;;39.60;16.30;;;1.60;99.90;;;;;;5007676;28;20282;-79
2022/02/28 11:29:15;;;;;;;36.00;16.60;;;1.70;99.90;;;;;;5008989;28;20188;-78
2022/02/28 11:31:40;;;;;;;31.33;15.47;;;1.50;99.90;;;;;;5003464;28;20653;-78
2022/02/28 11:34:09;;;;;;;29.27;14.30;;;1.40;99.90;;;;;;5010021;28;20208;-76
2022/02/28 11:36:58;;;;;;;32.23;15.70;;;1.30;99.90;;;;;;4996469;28;20244;-81
2022/02/28 11:39:37;;;;;;;32.63;15.30;;;1.10;99.90;;;;;;5009034;28;20180;-78
2022/02/28 11:42:05;;;;;;;39.03;17.33;;;1.10;99.90;;;;;;4990231;28;20711;-81
2022/02/28 11:44:36;;;;;;;33.27;16.33;;;1.20;99.90;;;;;;4994643;28;20195;-82
2022/02/28 11:47:07;;;;;;;30.13;15.13;;;1.40;99.90;;;;;;5001222;28;21038;-80
2022/02/28 11:49:43;;;;;;;47.00;22.27;;;1.40;99.90;;;;;;5005773;28;20277;-81
2022/02/28 11:52:32;;;;;;;40.00;19.63;;;1.50;99.90;;;;;;5005513;28;20183;-78
2022/02/28 11:54:59;;;;;;;41.47;18.87;;;1.90;99.90;;;;;;5001332;28;20283;-77
2022/02/28 11:57:47;;;;;;;40.07;19.73;;;1.90;99.90;;;;;;4996435;28;20176;-76
2022/02/28 12:00:12;;;;;;;37.90;18.90;;;1.90;99.90;;;;;;4996686;28;20703;-78
2022/02/28 12:02:38;;;;;;;40.23;18.33;;;2.00;99.90;;;;;;4994962;28;20279;-78
2022/02/28 12:05:39;;;;;;;42.50;22.33;;;2.00;99.90;;;;;;4996132;28;20712;-79
2022/02/28 12:08:08;;;;;;;43.00;19.70;;;2.00;99.90;;;;;;4997554;28;20175;-78
2022/02/28 12:10:37;;;;;;;43.87;20.23;;;1.90;99.90;;;;;;4994478;28;20257;-77
2022/02/28 12:13:03;;;;;;;60.83;28.10;;;1.80;99.90;;;;;;4993616;28;20685;-77
2022/02/28 12:15:29;;;;;;;47.90;25.13;;;1.70;99.90;;;;;;4996796;28;20222;-78
2022/02/28 12:17:59;;;;;;;50.13;21.53;;;1.90;99.90;;;;;;4996503;28;20235;-77
2022/02/28 12:20:35;;;;;;;46.80;22.07;;;2.10;99.90;;;;;;5011639;28;20215;-80
2022/02/28 12:23:09;;;;;;;41.93;19.67;;;2.00;99.90;;;;;;4996797;28;20222;-76
2022/02/28 12:25:45;;;;;;;46.67;19.93;;;1.90;99.90;;;;;;4998727;28;20180;-82
2022/02/28 12:28:34;;;;;;;39.07;16.70;;;1.90;99.90;;;;;;4996029;28;20198;-77
2022/02/28 12:31:38;;;;;;;40.10;17.23;;;2.10;99.90;;;;;;4999357;28;20214;-79